首页
METAR-TAF:

METAR-TAF

机场 :

阿薩盧耶, 伊朗

纬度: 27-22-46N, 经度: 52-44-15E, 海拔: 8米

当前天气观测

该预报发布于6小时和34分钟前的18:00 UTC
风速8节,风向南转南东
温度 20°C
湿度 83%
气压 1015 hPa
能見度: 5000
少量云层高于2000英尺
多云层高于3000英尺, 积雨云.
多云层高于10000英尺
雷暴, 雨

METAR: OIBP 071800Z 15008KT 5000 TSRA FEW020 BKN030CB BKN100 20/17 Q1015 A2998

时间: 04:04 (00:34 UTC)


TAF: 丢失

超过4000个机场的气象观测和天气预报(METAR&TAF报告)。

可查询的气象台以黄色和红色小点在地图上表示。

将鼠标移到小点上方,可查看气象台名称。

然后点击查看天气观测和预报。

如需切换地图:点击带黑十字的绿色按钮放大地图;点击带横线的绿色按钮缩小地图;或者点击绿色箭头查看邻近地区的地图。


METAR-TAF: